Time;durP1;ratioP1;P1;durP2;ratioP2;P2;SDS_P1;SDS_P2;PMS_P1;PMS_P2;Temp;Humidity;BMP_temperature;BMP_pressure;BME280_temperature;BME280_humidity;BME280_pressure;Samples;Min_cycle;Max_cycle;Signal;HPM_P1;HPM_P2
2023/11/28 00:00:33;;;;;;;9.25;4.78;;;;;;;;;;6239441;28;20433;-82
2023/11/28 00:03:34;;;;;;;8.13;4.43;;;;;;;;;;6235858;28;20044;-81
2023/11/28 00:06:36;;;;;;;9.18;4.68;;;;;;;;;;6241651;28;20041;-81
2023/11/28 00:09:38;;;;;;;11.75;5.60;;;;;;;;;;6212235;28;20046;-81
2023/11/28 00:12:40;;;;;;;9.43;4.70;;;;;;;;;;6213607;28;20045;-81
2023/11/28 00:15:42;;;;;;;10.15;4.57;;;;;;;;;;6203217;28;20500;-82
2023/11/28 00:18:43;;;;;;;7.75;4.15;;;;;;;;;;6210916;28;20046;-82
2023/11/28 00:21:45;;;;;;;7.55;4.05;;;;;;;;;;6223703;28;20516;-80
2023/11/28 00:24:50;;;;;;;6.38;4.18;;;;;;;;;;6217809;28;20053;-80
2023/11/28 00:27:51;;;;;;;9.13;4.63;;;;;;;;;;6218351;28;20725;-81
2023/11/28 00:30:53;;;;;;;8.05;4.45;;;;;;;;;;6214353;28;20045;-80
2023/11/28 00:33:55;;;;;;;12.10;5.72;;;;;;;;;;6225279;28;20060;-79
2023/11/28 00:36:57;;;;;;;9.30;5.15;;;;;;;;;;6247316;28;20179;-80
2023/11/28 00:39:59;;;;;;;12.32;5.97;;;;;;;;;;6247007;28;20056;-82
2023/11/28 00:43:01;;;;;;;43.97;11.07;;;;;;;;;;6235241;28;20046;-80
2023/11/28 00:46:03;;;;;;;30.38;9.23;;;;;;;;;;6213886;28;20056;-81
2023/11/28 00:49:04;;;;;;;35.97;11.05;;;;;;;;;;6242852;28;20037;-81
2023/11/28 00:52:08;;;;;;;25.55;9.10;;;;;;;;;;6242005;28;20434;-81
2023/11/28 00:55:10;;;;;;;18.38;5.95;;;;;;;;;;6229510;28;20049;-82
2023/11/28 00:58:11;;;;;;;11.25;4.88;;;;;;;;;;6221546;28;20045;-81
2023/11/28 01:01:14;;;;;;;12.90;5.38;;;;;;;;;;6218848;28;20049;-81
2023/11/28 01:04:15;;;;;;;37.03;10.70;;;;;;;;;;6216679;28;20428;-80
2023/11/28 01:07:17;;;;;;;11.10;4.55;;;;;;;;;;6198115;28;20065;-80
2023/11/28 01:10:19;;;;;;;15.25;5.65;;;;;;;;;;6233328;28;20061;-82
2023/11/28 01:13:21;;;;;;;12.77;5.70;;;;;;;;;;6209720;28;20520;-81
2023/11/28 01:16:23;;;;;;;54.45;16.95;;;;;;;;;;6210651;28;20050;-80
2023/11/28 01:19:26;;;;;;;32.22;12.50;;;;;;;;;;6218077;28;20060;-82
2023/11/28 01:22:28;;;;;;;5.05;3.15;;;;;;;;;;6230687;28;20051;-81
2023/11/28 01:25:30;;;;;;;9.45;4.10;;;;;;;;;;6217453;28;20043;-80
2023/11/28 01:28:33;;;;;;;14.20;5.32;;;;;;;;;;6237859;28;20057;-81
2023/11/28 01:31:35;;;;;;;7.15;3.58;;;;;;;;;;6246276;28;20523;-80
2023/11/28 01:34:37;;;;;;;16.70;6.07;;;;;;;;;;6247963;28;20040;-80
2023/11/28 01:37:39;;;;;;;14.35;5.45;;;;;;;;;;6250548;28;20045;-80
2023/11/28 01:40:41;;;;;;;22.15;8.15;;;;;;;;;;6258423;28;20069;-83
2023/11/28 01:43:42;;;;;;;25.70;9.43;;;;;;;;;;6238288;28;20049;-82
2023/11/28 01:46:44;;;;;;;16.15;6.93;;;;;;;;;;6236144;28;20125;-81
2023/11/28 01:49:47;;;;;;;5.30;2.92;;;;;;;;;;6241016;28;20049;-82
2023/11/28 01:52:49;;;;;;;4.27;2.70;;;;;;;;;;6242604;28;20088;-82
2023/11/28 01:55:52;;;;;;;4.37;2.67;;;;;;;;;;6241747;28;20064;-82
2023/11/28 01:58:55;;;;;;;6.75;3.17;;;;;;;;;;6240915;28;20041;-82
2023/11/28 02:01:57;;;;;;;5.03;3.15;;;;;;;;;;6246428;28;20053;-82
2023/11/28 02:04:59;;;;;;;8.02;4.03;;;;;;;;;;6246933;28;20413;-81
2023/11/28 02:08:02;;;;;;;8.85;4.57;;;;;;;;;;6233778;28;20053;-80
2023/11/28 02:11:04;;;;;;;10.20;4.97;;;;;;;;;;6237481;28;20049;-81
2023/11/28 02:14:06;;;;;;;5.20;2.78;;;;;;;;;;6240397;28;20059;-80
2023/11/28 02:17:07;;;;;;;6.43;3.03;;;;;;;;;;6245441;28;20116;-82
2023/11/28 02:20:10;;;;;;;9.90;4.45;;;;;;;;;;6219166;28;20149;-81
2023/11/28 02:23:12;;;;;;;8.60;4.60;;;;;;;;;;6232482;28;20045;-82
2023/11/28 02:26:25;;;;;;;10.27;4.95;;;;;;;;;;6240243;28;20055;-81
2023/11/28 02:29:27;;;;;;;10.20;4.50;;;;;;;;;;6235596;28;20430;-80
2023/11/28 02:32:31;;;;;;;7.93;4.32;;;;;;;;;;6244511;28;20050;-79
2023/11/28 02:35:33;;;;;;;9.27;4.40;;;;;;;;;;6222824;28;20134;-79
2023/11/28 02:38:35;;;;;;;10.95;4.43;;;;;;;;;;6218876;28;20049;-79
2023/11/28 02:41:37;;;;;;;11.00;4.70;;;;;;;;;;6216580;28;21113;-82
2023/11/28 02:44:38;;;;;;;11.23;4.90;;;;;;;;;;6235682;28;20057;-82
2023/11/28 02:47:40;;;;;;;16.05;4.95;;;;;;;;;;6221829;28;20115;-82
2023/11/28 02:50:42;;;;;;;10.88;5.43;;;;;;;;;;6235250;28;20049;-82
2023/11/28 02:53:44;;;;;;;9.00;4.00;;;;;;;;;;6234140;28;20087;-81
2023/11/28 02:56:48;;;;;;;7.13;3.22;;;;;;;;;;6223051;28;20469;-83
2023/11/28 02:59:50;;;;;;;6.05;3.45;;;;;;;;;;6219586;28;20042;-79
2023/11/28 03:02:52;;;;;;;4.20;2.42;;;;;;;;;;6222616;28;20045;-80
2023/11/28 03:05:54;;;;;;;5.78;2.55;;;;;;;;;;6225535;28;20052;-80
2023/11/28 03:08:57;;;;;;;4.40;2.42;;;;;;;;;;6220060;28;20037;-84
2023/11/28 03:11:59;;;;;;;3.80;2.20;;;;;;;;;;6220659;28;20049;-83
2023/11/28 03:15:02;;;;;;;3.60;2.10;;;;;;;;;;6224072;28;20041;-80
2023/11/28 03:18:08;;;;;;;4.00;2.28;;;;;;;;;;6201249;28;20337;-82
2023/11/28 03:21:10;;;;;;;3.35;1.95;;;;;;;;;;6223577;28;20489;-83
2023/11/28 03:24:13;;;;;;;2.63;1.75;;;;;;;;;;6235647;28;20114;-80
2023/11/28 03:27:17;;;;;;;2.17;1.50;;;;;;;;;;6239559;28;20148;-81
2023/11/28 03:30:22;;;;;;;3.67;1.80;;;;;;;;;;6221496;28;20048;-82
2023/11/28 03:33:24;;;;;;;3.72;1.95;;;;;;;;;;6221736;28;20048;-82
2023/11/28 03:36:26;;;;;;;2.03;1.15;;;;;;;;;;6223865;28;20054;-80
2023/11/28 03:39:28;;;;;;;2.63;1.58;;;;;;;;;;6216003;28;20050;-80
2023/11/28 03:42:30;;;;;;;2.05;1.20;;;;;;;;;;6200247;28;20125;-81
2023/11/28 03:45:32;;;;;;;2.58;1.05;;;;;;;;;;6225219;28;20049;-79
2023/11/28 03:48:33;;;;;;;2.72;1.20;;;;;;;;;;6221792;28;20057;-82
2023/11/28 03:51:36;;;;;;;1.75;0.93;;;;;;;;;;6224818;28;20052;-83
2023/11/28 03:54:38;;;;;;;0.70;0.70;;;;;;;;;;6247322;28;20052;-82
2023/11/28 03:57:40;;;;;;;1.00;0.83;;;;;;;;;;6244243;28;20111;-81
2023/11/28 04:00:42;;;;;;;1.48;0.70;;;;;;;;;;6232028;28;20115;-83
2023/11/28 04:03:44;;;;;;;0.50;0.50;;;;;;;;;;6227289;28;20049;-82
2023/11/28 04:06:47;;;;;;;0.63;0.50;;;;;;;;;;6230363;28;20046;-80
2023/11/28 04:09:48;;;;;;;2.10;0.60;;;;;;;;;;6228040;28;20448;-83
2023/11/28 04:12:51;;;;;;;0.30;0.30;;;;;;;;;;6242735;28;20052;-81
2023/11/28 04:15:53;;;;;;;0.40;0.40;;;;;;;;;;6247729;28;20041;-81
2023/11/28 04:18:55;;;;;;;0.52;0.50;;;;;;;;;;6250408;28;20049;-82
2023/11/28 04:21:57;;;;;;;0.30;0.30;;;;;;;;;;6229691;28;20532;-82
2023/11/28 04:24:59;;;;;;;0.30;0.30;;;;;;;;;;6229056;28;20085;-80
2023/11/28 04:28:01;;;;;;;0.52;0.30;;;;;;;;;;6226344;28;20049;-82
2023/11/28 04:31:03;;;;;;;0.30;0.30;;;;;;;;;;6212480;28;20049;-82
2023/11/28 04:34:06;;;;;;;0.40;0.40;;;;;;;;;;6239979;28;20055;-81
2023/11/28 04:37:08;;;;;;;0.45;0.32;;;;;;;;;;6225810;28;20042;-81
2023/11/28 04:40:16;;;;;;;0.30;0.30;;;;;;;;;;6229264;28;20155;-81
2023/11/28 04:43:18;;;;;;;0.52;0.43;;;;;;;;;;6246811;28;20864;-81
2023/11/28 04:46:20;;;;;;;0.43;0.30;;;;;;;;;;6243185;28;20056;-83
2023/11/28 04:49:23;;;;;;;0.50;0.50;;;;;;;;;;6244083;28;20057;-81
2023/11/28 04:52:25;;;;;;;0.75;0.75;;;;;;;;;;6233451;28;20056;-81
2023/11/28 04:55:27;;;;;;;0.40;0.40;;;;;;;;;;6224292;28;20120;-82
2023/11/28 04:58:30;;;;;;;1.25;0.60;;;;;;;;;;6246631;28;20053;-82
2023/11/28 05:01:32;;;;;;;0.50;0.50;;;;;;;;;;6243251;28;20076;-82
2023/11/28 05:04:37;;;;;;;0.30;0.30;;;;;;;;;;6242076;28;20048;-80
2023/11/28 05:07:38;;;;;;;0.30;0.30;;;;;;;;;;6233251;28;20037;-80
2023/11/28 05:10:42;;;;;;;0.30;0.30;;;;;;;;;;6240052;28;20523;-81
2023/11/28 05:13:44;;;;;;;0.25;0.25;;;;;;;;;;6248275;28;20055;-81
2023/11/28 05:16:46;;;;;;;0.63;0.60;;;;;;;;;;6228778;28;20045;-82
2023/11/28 05:19:55;;;;;;;0.73;0.52;;;;;;;;;;6233253;28;20484;-82
2023/11/28 05:22:57;;;;;;;0.40;0.40;;;;;;;;;;6247178;28;20188;-83
2023/11/28 05:26:00;;;;;;;0.40;0.40;;;;;;;;;;6226597;28;20049;-84
2023/11/28 05:29:02;;;;;;;1.67;1.00;;;;;;;;;;6242430;28;20052;-82
2023/11/28 05:32:04;;;;;;;0.57;0.45;;;;;;;;;;6246421;28;20065;-84
2023/11/28 05:35:08;;;;;;;;;;;;;;;;;;6248130;28;20049;-83
2023/11/28 05:38:11;;;;;;;0.50;0.50;;;;;;;;;;6232463;28;19928;-82
2023/11/28 05:41:14;;;;;;;0.80;0.80;;;;;;;;;;6245697;28;20083;-82
2023/11/28 05:44:16;;;;;;;1.63;1.13;;;;;;;;;;6247616;28;20048;-82
2023/11/28 05:47:18;;;;;;;1.80;1.60;;;;;;;;;;6232060;28;20045;-80
2023/11/28 05:50:22;;;;;;;0.60;0.60;;;;;;;;;;6227935;28;20050;-81
2023/11/28 05:53:25;;;;;;;1.60;1.23;;;;;;;;;;6247216;28;20050;-83
2023/11/28 05:56:26;;;;;;;1.50;1.08;;;;;;;;;;6247593;28;20060;-79
2023/11/28 05:59:28;;;;;;;2.38;2.00;;;;;;;;;;6249076;28;20113;-80
2023/11/28 06:02:30;;;;;;;8.27;6.35;;;;;;;;;;6247130;28;20049;-80
2023/11/28 06:05:32;;;;;;;3.40;2.70;;;;;;;;;;6284986;23;20060;-87
2023/11/28 06:08:35;;;;;;;1.45;1.35;;;;;;;;;;6222756;28;20664;-84
2023/11/28 06:11:37;;;;;;;1.40;1.30;;;;;;;;;;6235054;28;20084;-85
2023/11/28 06:14:39;;;;;;;3.03;2.20;;;;;;;;;;6239223;28;20037;-84
2023/11/28 06:17:41;;;;;;;1.92;1.73;;;;;;;;;;6237339;28;20096;-84
2023/11/28 06:20:48;;;;;;;3.25;2.53;;;;;;;;;;6248667;28;20049;-87
2023/11/28 06:23:51;;;;;;;1.85;1.67;;;;;;;;;;6253269;28;20585;-86
2023/11/28 06:26:54;;;;;;;;;;;;;;;;;;6257069;28;20495;-86
2023/11/28 06:29:55;;;;;;;1.40;1.00;;;;;;;;;;6252512;28;19952;-84
2023/11/28 06:32:57;;;;;;;1.48;1.38;;;;;;;;;;6235664;28;20045;-86
2023/11/28 06:35:59;;;;;;;1.77;1.17;;;;;;;;;;6251662;28;20148;-83
2023/11/28 06:39:01;;;;;;;1.33;1.23;;;;;;;;;;6249033;28;20077;-84
2023/11/28 06:42:03;;;;;;;2.38;1.50;;;;;;;;;;6252108;28;20049;-84
2023/11/28 06:45:05;;;;;;;1.33;1.17;;;;;;;;;;6252458;28;20506;-84
2023/11/28 06:48:08;;;;;;;1.45;1.30;;;;;;;;;;6235170;28;20129;-84
2023/11/28 06:51:10;;;;;;;2.53;1.50;;;;;;;;;;6252191;28;20040;-86
2023/11/28 06:54:12;;;;;;;1.40;1.30;;;;;;;;;;6234429;28;20051;-85
2023/11/28 06:57:14;;;;;;;1.83;1.30;;;;;;;;;;6251985;28;20037;-85
2023/11/28 07:00:16;;;;;;;2.40;1.38;;;;;;;;;;6268396;28;20612;-87
2023/11/28 07:03:18;;;;;;;1.83;1.40;;;;;;;;;;6249338;28;20052;-83
2023/11/28 07:06:20;;;;;;;1.35;1.17;;;;;;;;;;6251480;28;20052;-83
2023/11/28 07:09:21;;;;;;;1.63;1.52;;;;;;;;;;6250934;28;20462;-83
2023/11/28 07:12:23;;;;;;;1.63;1.30;;;;;;;;;;6250511;28;20415;-85
2023/11/28 07:15:25;;;;;;;1.10;1.00;;;;;;;;;;6262250;28;20138;-82
2023/11/28 07:18:28;;;;;;;1.70;1.20;;;;;;;;;;6247578;28;20041;-83
2023/11/28 07:21:36;;;;;;;1.63;1.17;;;;;;;;;;6248766;28;20124;-82
2023/11/28 07:24:38;;;;;;;1.15;1.05;;;;;;;;;;6249187;28;20706;-83
2023/11/28 07:27:40;;;;;;;1.40;1.30;;;;;;;;;;6232135;28;20415;-85
2023/11/28 07:30:42;;;;;;;3.00;1.80;;;;;;;;;;6249367;28;20068;-84
2023/11/28 07:33:44;;;;;;;1.63;1.40;;;;;;;;;;6256505;28;20617;-82
2023/11/28 07:36:47;;;;;;;1.90;1.45;;;;;;;;;;6234308;28;20044;-85
2023/11/28 07:39:51;;;;;;;1.88;1.42;;;;;;;;;;6259287;28;20041;-84
2023/11/28 07:42:53;;;;;;;1.60;1.50;;;;;;;;;;6257527;28;20048;-84
2023/11/28 07:45:56;;;;;;;2.13;1.80;;;;;;;;;;6257428;28;20495;-84
2023/11/28 07:48:58;;;;;;;2.03;1.80;;;;;;;;;;6260754;28;20041;-82
2023/11/28 07:52:00;;;;;;;2.67;1.75;;;;;;;;;;6254437;28;20048;-80
2023/11/28 07:55:02;;;;;;;2.58;1.60;;;;;;;;;;6232081;28;20056;-79
2023/11/28 07:58:04;;;;;;;6.63;4.25;;;;;;;;;;6235334;28;20052;-79
2023/11/28 08:01:10;;;;;;;3.80;3.13;;;;;;;;;;6253512;28;20653;-79
2023/11/28 08:04:11;;;;;;;6.22;3.92;;;;;;;;;;6256639;28;20049;-80
2023/11/28 08:07:13;;;;;;;9.50;3.58;;;;;;;;;;6256605;28;20693;-80
2023/11/28 08:10:15;;;;;;;4.90;4.38;;;;;;;;;;6251237;28;20047;-81
2023/11/28 08:13:17;;;;;;;6.00;4.70;;;;;;;;;;6252207;28;20534;-79
2023/11/28 08:16:20;;;;;;;17.98;11.90;;;;;;;;;;6264980;28;20056;-81
2023/11/28 08:19:21;;;;;;;69.15;36.30;;;;;;;;;;6238180;28;20164;-81
2023/11/28 08:22:23;;;;;;;17.40;10.90;;;;;;;;;;6242869;28;20211;-81
2023/11/28 08:25:25;;;;;;;5.20;4.25;;;;;;;;;;6240862;28;20127;-79
2023/11/28 08:28:27;;;;;;;5.25;2.90;;;;;;;;;;6258068;28;20418;-81
2023/11/28 08:31:28;;;;;;;5.07;3.72;;;;;;;;;;6270325;28;20056;-82
2023/11/28 08:34:30;;;;;;;5.35;3.55;;;;;;;;;;6255682;28;20548;-81
2023/11/28 08:37:33;;;;;;;8.55;5.05;;;;;;;;;;6272852;28;20048;-81
2023/11/28 08:40:35;;;;;;;6.22;4.32;;;;;;;;;;6231665;28;20044;-81
2023/11/28 08:43:36;;;;;;;4.60;3.63;;;;;;;;;;6247063;28;20048;-81
2023/11/28 08:46:38;;;;;;;3.45;2.67;;;;;;;;;;6251444;28;20041;-80
2023/11/28 08:49:44;;;;;;;3.22;2.40;;;;;;;;;;6249953;28;20191;-81
2023/11/28 08:52:46;;;;;;;4.32;3.08;;;;;;;;;;6252491;28;20041;-80
2023/11/28 08:55:48;;;;;;;3.78;3.13;;;;;;;;;;6253354;28;20775;-80
2023/11/28 08:58:53;;;;;;;4.70;3.50;;;;;;;;;;6254991;28;20513;-81
2023/11/28 09:01:55;;;;;;;6.15;3.80;;;;;;;;;;6254728;28;20134;-80
2023/11/28 09:04:57;;;;;;;5.05;3.67;;;;;;;;;;6233498;28;20048;-80
2023/11/28 09:08:00;;;;;;;5.03;3.50;;;;;;;;;;6253969;28;20045;-81
2023/11/28 09:11:04;;;;;;;5.23;3.83;;;;;;;;;;6253618;28;20045;-81
2023/11/28 09:14:06;;;;;;;4.80;3.35;;;;;;;;;;6252913;28;20041;-81
2023/11/28 09:17:10;;;;;;;4.00;3.20;;;;;;;;;;6250013;28;20049;-81
2023/11/28 09:20:12;;;;;;;4.82;3.35;;;;;;;;;;6247088;28;20040;-80
2023/11/28 09:23:14;;;;;;;3.70;2.72;;;;;;;;;;6250866;28;20519;-80
2023/11/28 09:26:16;;;;;;;3.83;3.22;;;;;;;;;;6235680;28;20076;-81
2023/11/28 09:29:22;;;;;;;4.18;3.22;;;;;;;;;;6253093;28;20052;-81
2023/11/28 09:32:23;;;;;;;6.72;3.58;;;;;;;;;;6252269;28;20045;-80
2023/11/28 09:35:26;;;;;;;5.82;3.45;;;;;;;;;;6244421;28;20065;-81
2023/11/28 09:38:31;;;;;;;4.35;3.08;;;;;;;;;;6264577;28;20048;-81
2023/11/28 09:41:35;;;;;;;5.38;3.10;;;;;;;;;;6258082;28;20448;-81
2023/11/28 09:44:49;;;;;;;5.90;4.85;;;;;;;;;;6254025;28;20052;-81
2023/11/28 09:47:52;;;;;;;5.93;4.25;;;;;;;;;;6255542;28;20089;-81
2023/11/28 09:50:55;;;;;;;4.43;2.90;;;;;;;;;;6250794;28;20544;-81
2023/11/28 09:53:58;;;;;;;5.75;4.40;;;;;;;;;;6251325;28;20048;-80
2023/11/28 09:57:00;;;;;;;6.85;3.60;;;;;;;;;;6235831;28;20060;-81
2023/11/28 10:00:04;;;;;;;5.55;3.45;;;;;;;;;;6252576;28;20049;-81
2023/11/28 10:03:11;;;;;;;5.07;3.17;;;;;;;;;;6247406;28;20099;-81
2023/11/28 10:06:24;;;;;;;4.45;3.15;;;;;;;;;;6231965;28;20047;-81
2023/11/28 10:09:29;;;;;;;7.55;4.50;;;;;;;;;;6260945;28;20231;-81
2023/11/28 10:12:31;;;;;;;7.28;4.43;;;;;;;;;;6249247;28;20514;-81
2023/11/28 10:15:33;;;;;;;6.82;4.32;;;;;;;;;;6244863;28;20043;-80
2023/11/28 10:18:34;;;;;;;6.75;3.47;;;;;;;;;;6229574;28;20506;-81
2023/11/28 10:21:38;;;;;;;5.03;3.45;;;;;;;;;;6235900;28;20049;-81
2023/11/28 10:24:40;;;;;;;5.32;3.30;;;;;;;;;;6259368;28;20133;-81
2023/11/28 10:27:43;;;;;;;5.68;3.80;;;;;;;;;;6260241;28;20053;-81
2023/11/28 10:30:50;;;;;;;5.13;3.50;;;;;;;;;;6250007;28;20067;-81
2023/11/28 10:33:57;;;;;;;7.05;3.90;;;;;;;;;;6249528;28;20045;-82
2023/11/28 10:36:58;;;;;;;5.90;3.78;;;;;;;;;;6244742;28;20415;-81
2023/11/28 10:40:04;;;;;;;7.97;3.42;;;;;;;;;;6238995;28;20107;-82
2023/11/28 10:43:07;;;;;;;5.93;3.30;;;;;;;;;;6250884;28;20045;-81
2023/11/28 10:46:11;;;;;;;6.75;3.95;;;;;;;;;;6236011;28;20051;-83
2023/11/28 10:49:13;;;;;;;5.85;3.42;;;;;;;;;;6253253;28;20047;-82
2023/11/28 10:52:19;;;;;;;6.97;3.55;;;;;;;;;;6252310;28;20053;-85
2023/11/28 10:55:27;;;;;;;7.25;3.70;;;;;;;;;;6264062;28;20071;-85
2023/11/28 10:58:30;;;;;;;6.60;3.50;;;;;;;;;;6259893;28;20057;-84
2023/11/28 11:01:32;;;;;;;5.43;3.10;;;;;;;;;;6254551;28;20048;-85
2023/11/28 11:04:35;;;;;;;4.18;3.15;;;;;;;;;;6256904;28;20040;-86
2023/11/28 11:07:37;;;;;;;4.15;2.78;;;;;;;;;;6241464;28;20041;-83
2023/11/28 11:10:40;;;;;;;5.82;2.50;;;;;;;;;;6244805;28;20053;-82
2023/11/28 11:13:48;;;;;;;4.70;2.10;;;;;;;;;;6244382;28;20053;-81
2023/11/28 11:17:19;;;;;;;4.20;2.25;;;;;;;;;;6273006;28;20123;-82
2023/11/28 11:20:24;;;;;;;4.65;2.25;;;;;;;;;;6257460;28;20056;-81
2023/11/28 11:23:29;;;;;;;3.28;2.58;;;;;;;;;;6250267;28;20053;-83
2023/11/28 11:26:36;;;;;;;5.28;2.72;;;;;;;;;;6241965;28;20042;-81
2023/11/28 11:29:40;;;;;;;4.82;2.00;;;;;;;;;;6254088;28;20045;-82
2023/11/28 11:32:41;;;;;;;;;;;;;;;;;;6255592;28;20127;-82
2023/11/28 11:47:51;;;;;;;4.63;2.75;;;;;;;;;;6267416;27;20191;-80
2023/11/28 11:50:53;;;;;;;2.40;1.85;;;;;;;;;;6252543;28;20097;-78
2023/11/28 11:53:56;;;;;;;4.15;2.55;;;;;;;;;;6273361;28;20044;-78
2023/11/28 11:56:58;;;;;;;3.85;2.03;;;;;;;;;;6270325;28;20045;-79
2023/11/28 12:00:00;;;;;;;2.33;1.67;;;;;;;;;;6266109;28;20044;-78
2023/11/28 12:03:01;;;;;;;3.85;2.35;;;;;;;;;;6271206;28;20533;-78
2023/11/28 12:06:04;;;;;;;7.22;2.45;;;;;;;;;;6274137;28;20448;-79
2023/11/28 12:09:08;;;;;;;1.77;1.20;;;;;;;;;;6271769;28;20075;-79
2023/11/28 12:12:12;;;;;;;3.03;1.75;;;;;;;;;;6272775;28;20532;-78
2023/11/28 12:15:17;;;;;;;1.48;1.38;;;;;;;;;;6252098;28;20044;-77
2023/11/28 12:18:20;;;;;;;2.90;1.50;;;;;;;;;;6258934;28;20204;-76
2023/11/28 12:21:21;;;;;;;2.38;1.80;;;;;;;;;;6271325;28;20502;-75
2023/11/28 12:24:24;;;;;;;2.63;2.08;;;;;;;;;;6264588;28;20196;-76
2023/11/28 12:27:26;;;;;;;3.15;2.10;;;;;;;;;;6267017;28;20067;-77
2023/11/28 12:30:29;;;;;;;1.90;1.58;;;;;;;;;;6271533;28;20044;-77
2023/11/28 12:33:32;;;;;;;1.90;1.20;;;;;;;;;;6269164;28;20075;-76
2023/11/28 12:36:34;;;;;;;2.70;2.20;;;;;;;;;;6269008;28;20043;-77
2023/11/28 12:39:39;;;;;;;2.20;1.70;;;;;;;;;;6275440;28;20700;-76
2023/11/28 12:42:45;;;;;;;2.97;2.13;;;;;;;;;;6266047;28;20125;-77
2023/11/28 12:45:51;;;;;;;4.13;2.20;;;;;;;;;;6279967;28;20055;-77
2023/11/28 12:48:53;;;;;;;5.22;2.70;;;;;;;;;;6291540;28;20059;-76
2023/11/28 12:51:58;;;;;;;1.77;1.65;;;;;;;;;;6274484;28;20037;-76
2023/11/28 12:55:02;;;;;;;2.05;1.67;;;;;;;;;;6269058;28;20037;-77
2023/11/28 12:58:04;;;;;;;3.20;1.80;;;;;;;;;;6255313;28;20060;-76
2023/11/28 13:01:06;;;;;;;4.90;2.33;;;;;;;;;;6249297;28;20051;-76
2023/11/28 13:04:09;;;;;;;4.00;2.03;;;;;;;;;;6253216;28;20111;-76
2023/11/28 13:07:11;;;;;;;5.18;2.55;;;;;;;;;;6257605;28;20102;-76
2023/11/28 13:10:28;;;;;;;5.50;3.10;;;;;;;;;;6240903;28;20124;-76
2023/11/28 13:13:30;;;;;;;5.82;4.38;;;;;;;;;;6247005;28;20033;-77
2023/11/28 13:16:32;;;;;;;6.28;3.55;;;;;;;;;;6247414;28;20050;-77
2023/11/28 13:19:37;;;;;;;3.78;2.47;;;;;;;;;;6269168;28;20426;-76
2023/11/28 13:22:39;;;;;;;3.25;2.47;;;;;;;;;;6260240;28;20221;-77
2023/11/28 13:25:41;;;;;;;2.60;2.20;;;;;;;;;;6262792;28;20063;-77
2023/11/28 13:28:43;;;;;;;3.22;2.42;;;;;;;;;;6250777;28;20048;-77
2023/11/28 13:31:45;;;;;;;2.47;1.90;;;;;;;;;;6248724;28;20044;-77
2023/11/28 13:34:47;;;;;;;3.97;2.60;;;;;;;;;;6248812;28;20060;-77
2023/11/28 13:37:49;;;;;;;2.85;2.47;;;;;;;;;;6249808;28;20525;-76
2023/11/28 13:40:52;;;;;;;3.58;2.25;;;;;;;;;;6251038;28;20134;-77
2023/11/28 13:43:55;;;;;;;4.60;3.10;;;;;;;;;;6252030;28;20045;-77
2023/11/28 13:46:57;;;;;;;3.30;2.85;;;;;;;;;;6259276;28;20090;-77
2023/11/28 13:50:00;;;;;;;5.82;3.05;;;;;;;;;;6254614;28;20048;-77
2023/11/28 13:53:02;;;;;;;3.08;1.90;;;;;;;;;;6247125;28;20045;-77
2023/11/28 13:56:04;;;;;;;3.80;2.50;;;;;;;;;;6249995;28;20516;-77
2023/11/28 13:59:05;;;;;;;8.88;4.30;;;;;;;;;;6249865;28;20502;-77
2023/11/28 14:02:08;;;;;;;5.45;2.33;;;;;;;;;;6250424;28;20057;-77
2023/11/28 14:05:10;;;;;;;;;;;;;;;;;;6269930;28;20045;-77
2023/11/28 14:08:12;;;;;;;29.27;8.85;;;;;;;;;;6248502;28;19925;-76
2023/11/28 14:11:14;;;;;;;7.75;2.88;;;;;;;;;;6248475;28;20128;-77
2023/11/28 14:14:15;;;;;;;6.90;3.10;;;;;;;;;;6249657;28;20041;-76
2023/11/28 14:17:20;;;;;;;4.15;2.80;;;;;;;;;;6233018;28;20029;-76
2023/11/28 14:20:22;;;;;;;6.20;3.33;;;;;;;;;;6230702;28;20044;-76
2023/11/28 14:23:24;;;;;;;4.97;2.85;;;;;;;;;;6247333;28;20045;-76
2023/11/28 14:26:26;;;;;;;25.67;7.32;;;;;;;;;;6249996;28;20041;-77
2023/11/28 14:29:28;;;;;;;4.68;2.67;;;;;;;;;;6253934;28;20037;-76
2023/11/28 14:32:29;;;;;;;3.92;2.22;;;;;;;;;;6262448;28;20044;-76
2023/11/28 14:35:31;;;;;;;5.55;3.20;;;;;;;;;;6250549;28;20052;-76
2023/11/28 14:38:33;;;;;;;3.80;1.95;;;;;;;;;;6249361;28;20044;-76
2023/11/28 14:41:35;;;;;;;13.15;4.55;;;;;;;;;;6251847;28;20033;-76
2023/11/28 14:44:36;;;;;;;30.02;10.38;;;;;;;;;;6247564;28;20406;-76
2023/11/28 14:47:38;;;;;;;9.90;4.47;;;;;;;;;;6245401;28;20216;-77
2023/11/28 14:50:40;;;;;;;3.35;2.53;;;;;;;;;;6245245;28;20395;-76
2023/11/28 14:53:42;;;;;;;18.27;6.88;;;;;;;;;;6241100;28;20059;-76
2023/11/28 14:56:43;;;;;;;275.48;54.40;;;;;;;;;;6249745;28;20053;-76
2023/11/28 14:59:45;;;;;;;494.00;120.18;;;;;;;;;;6247049;28;20048;-76
2023/11/28 15:02:48;;;;;;;25.40;12.13;;;;;;;;;;6244670;28;20049;-76
2023/11/28 15:05:49;;;;;;;3.53;2.50;;;;;;;;;;6252440;28;20490;-76
2023/11/28 15:08:51;;;;;;;5.18;2.83;;;;;;;;;;6247810;28;20053;-76
2023/11/28 15:11:55;;;;;;;61.03;22.45;;;;;;;;;;6245167;28;20056;-76
2023/11/28 15:14:56;;;;;;;;;;;;;;;;;;6241034;28;20044;-76
2023/11/28 15:17:58;;;;;;;45.33;12.73;;;;;;;;;;6241068;28;19928;-76
2023/11/28 15:21:00;;;;;;;26.05;9.93;;;;;;;;;;6237381;28;20060;-76
2023/11/28 15:24:03;;;;;;;5.82;2.83;;;;;;;;;;6231311;28;20056;-76
2023/11/28 15:27:05;;;;;;;4.40;2.72;;;;;;;;;;6222104;28;20073;-76
2023/11/28 15:30:09;;;;;;;6.38;3.20;;;;;;;;;;6241750;28;20056;-76
2023/11/28 15:33:12;;;;;;;17.67;6.93;;;;;;;;;;6236034;28;21059;-76
2023/11/28 15:36:16;;;;;;;33.60;10.67;;;;;;;;;;6243769;28;20059;-76
2023/11/28 15:39:19;;;;;;;21.30;8.10;;;;;;;;;;6262528;28;20433;-76
2023/11/28 15:42:21;;;;;;;4.72;2.80;;;;;;;;;;6264225;28;20133;-76
2023/11/28 15:45:26;;;;;;;36.05;11.82;;;;;;;;;;6263898;28;20776;-75
2023/11/28 15:48:28;;;;;;;78.65;26.30;;;;;;;;;;6266171;28;20071;-76
2023/11/28 15:51:30;;;;;;;9.90;4.50;;;;;;;;;;6244826;28;20079;-76
2023/11/28 15:54:41;;;;;;;2.92;2.08;;;;;;;;;;6238001;28;20041;-76
2023/11/28 15:57:43;;;;;;;32.65;10.90;;;;;;;;;;6241393;28;20041;-77
2023/11/28 16:00:45;;;;;;;31.45;11.85;;;;;;;;;;6244140;28;20210;-76
2023/11/28 16:03:47;;;;;;;7.50;3.78;;;;;;;;;;6244038;28;20053;-76
2023/11/28 16:06:49;;;;;;;13.05;5.90;;;;;;;;;;6236880;28;20068;-76
2023/11/28 16:09:50;;;;;;;9.65;4.82;;;;;;;;;;6233770;28;20482;-76
2023/11/28 16:12:52;;;;;;;7.60;4.13;;;;;;;;;;6242127;28;20049;-76
2023/11/28 16:15:54;;;;;;;7.35;3.67;;;;;;;;;;6242805;28;20045;-76
2023/11/28 16:18:56;;;;;;;12.13;6.00;;;;;;;;;;6249201;28;20049;-76
2023/11/28 16:21:58;;;;;;;6.28;3.33;;;;;;;;;;6240830;28;20037;-78
2023/11/28 16:25:02;;;;;;;8.87;4.70;;;;;;;;;;6236229;28;20045;-75
2023/11/28 16:28:03;;;;;;;2.95;2.28;;;;;;;;;;6238463;28;20458;-76
2023/11/28 16:31:05;;;;;;;1.98;1.65;;;;;;;;;;6241737;28;20356;-75
2023/11/28 16:34:07;;;;;;;82.18;23.05;;;;;;;;;;6243574;28;20052;-75
2023/11/28 16:37:09;;;;;;;7.03;3.97;;;;;;;;;;6242086;28;20136;-77
2023/11/28 16:40:11;;;;;;;8.32;3.08;;;;;;;;;;6228157;28;20060;-78
2023/11/28 16:43:13;;;;;;;4.53;2.58;;;;;;;;;;6248727;28;20045;-77
2023/11/28 16:46:15;;;;;;;4.60;3.53;;;;;;;;;;6242439;28;20388;-77
2023/11/28 16:49:17;;;;;;;7.65;4.07;;;;;;;;;;6243675;28;20075;-77
2023/11/28 16:52:18;;;;;;;5.28;3.20;;;;;;;;;;6269476;28;20041;-77
2023/11/28 16:55:20;;;;;;;5.35;2.70;;;;;;;;;;6244098;28;20477;-77
2023/11/28 16:58:22;;;;;;;5.13;3.08;;;;;;;;;;6240453;28;20068;-79
2023/11/28 17:01:23;;;;;;;6.78;3.72;;;;;;;;;;6238024;28;20273;-77
2023/11/28 17:04:27;;;;;;;13.20;6.95;;;;;;;;;;6245528;28;20068;-77
2023/11/28 17:07:29;;;;;;;15.73;9.35;;;;;;;;;;6235967;28;20086;-76
2023/11/28 17:10:34;;;;;;;17.70;9.88;;;;;;;;;;6250075;28;20057;-76
2023/11/28 17:13:37;;;;;;;16.38;9.18;;;;;;;;;;6249408;28;20195;-77
2023/11/28 17:16:39;;;;;;;15.80;6.85;;;;;;;;;;6247910;28;20086;-77
2023/11/28 17:19:41;;;;;;;29.35;12.75;;;;;;;;;;6250246;28;20554;-77
2023/11/28 17:22:42;;;;;;;17.02;9.43;;;;;;;;;;6248446;28;20049;-76
2023/11/28 17:25:44;;;;;;;9.45;5.72;;;;;;;;;;6246861;28;20418;-76
2023/11/28 17:28:46;;;;;;;5.88;3.53;;;;;;;;;;6233600;28;20045;-77
2023/11/28 17:31:50;;;;;;;5.33;3.77;;;;;;;;;;6231009;28;20052;-76
2023/11/28 17:34:53;;;;;;;5.38;3.70;;;;;;;;;;6256542;28;20053;-77
2023/11/28 17:37:56;;;;;;;8.80;5.22;;;;;;;;;;6252434;28;20048;-77
2023/11/28 17:40:57;;;;;;;6.53;3.85;;;;;;;;;;6254761;28;20052;-77
2023/11/28 17:43:59;;;;;;;5.47;3.13;;;;;;;;;;6247990;28;20071;-77
2023/11/28 17:47:01;;;;;;;5.43;2.85;;;;;;;;;;6260601;28;20282;-77
2023/11/28 17:50:04;;;;;;;3.80;2.53;;;;;;;;;;6248537;28;20072;-77
2023/11/28 17:53:06;;;;;;;;;;;;;;;;;;6241760;28;20517;-76
2023/11/28 17:56:09;;;;;;;12.48;6.00;;;;;;;;;;6248656;28;19930;-77
2023/11/28 17:59:11;;;;;;;19.25;8.05;;;;;;;;;;6252236;28;20414;-77
2023/11/28 18:02:14;;;;;;;11.23;6.05;;;;;;;;;;6228653;28;20045;-77
2023/11/28 18:05:19;;;;;;;21.80;9.18;;;;;;;;;;6231245;28;20581;-77
2023/11/28 18:08:22;;;;;;;31.33;10.65;;;;;;;;;;6247227;28;20427;-77
2023/11/28 18:11:23;;;;;;;23.92;9.38;;;;;;;;;;6245969;28;20048;-76
2023/11/28 18:14:26;;;;;;;11.38;5.70;;;;;;;;;;6248295;28;20040;-77
2023/11/28 18:17:28;;;;;;;11.70;5.63;;;;;;;;;;6249770;28;20086;-77
2023/11/28 18:20:36;;;;;;;9.23;5.35;;;;;;;;;;6243604;28;20499;-77
2023/11/28 18:23:37;;;;;;;8.65;5.00;;;;;;;;;;6251244;28;20083;-77